Boucherville, Québec

4:26 PM EDT on April 26, 2015 (GMT -0400)
Tetreaultville | | Change Station
CLOSE
Current Station
Personal Weather Station
Location: Montr�al, QU�BEC
Elevation: 78 ft
Nearby Weather Stations

Elev 78 ft 45.61 °N, 73.52 °W | Updated 1 minute ago

Overcast
Overcast
53.5 °F
Feels Like 53.5 °F
N
1.0
Wind Variable Wind from NW
Gusts 2.0 mph

Today
High -- | Low -- °F
--% Chance of Precip.
Yesterday
High -- | Low -- °F
Precip. -- in
5:50 AM 7:54 PM
First Quarter, 58% visible
Pressure 29.68 in
Visibility 9.0 miles
Clouds Overcast 5500 ft
Dew Point 38 °F
Humidity 57%
Rainfall 0.00 in
Snow Depth Not available.
UV 1 out of 12
Pollen Not available.
Air Quality Not available.
Flu Activity Not available.
METAR CYHU 262000Z AUTO 34007KT 290V360 9SM OVC055 11/00 A2968 RMK SLP050

More Conditions Fewer Conditions

Pressure 29.68 in
Visibility 9.0 miles
Clouds Overcast 5500 ft
Dew Point 38 °F
Humidity 57%
Rainfall 0.00 in
Snow Depth Not available.
UV 1 out of 12
Pollen Not available.
Air Quality Not available.
Flu Activity Not available.
METAR CYHU 262000Z AUTO 34007KT 290V360 9SM OVC055 11/00 A2968 RMK SLP050

More Conditions Fewer Conditions

10-Day Weather Forecast

Almanac

Astronomy

Apr. 26, 2015 Rise Set
Actual Time
Civil Twilight
Nautical Twilight
Astronomical Twilight
Moon
Length of Visible Light
Length of Day
Tomorrow will be .
, % of the Moon is Illuminated

Today's Extremes

Country Highs Country Lows

Community

WunderPhotos

Upload Photos

1,817,109 photos uploaded!

WunderBlogs® & News

Nearby

Air Quality

  Air Quality AQ Index Pollutant
Not available.

Snow Depth

Station Depth Elevation

Earthquake Activity

City Distance Mag. Time & Date
Minimum magnitude displayed is 2.5.

Coastal Water Temperatures

Place Temperature

Stations

Nearby Weather Stations

Station Location Temp. Windchill Dew Point Humidity Wind Precip. Elev Updated Type